Rollingstone/Halifax Bay, Australia
Current Conditions -  °F | °C
As of 1:00 AM on Wednesday 22 Oct 2014 (Local Time) from YBTL Reporting Station
Clear Clear  
Wind Chill: 72°   Ceiling: Unl
Heat Index: 72°   Visibility: 6mi
Dew Point: 61°   Wind: 7mph
Humidity: 69%   Direction: 160°SSE
Pressure: 30.12"   Gusts: NA
Location:  18.83°S, 146.5°E
Report Text: YBTL 211500Z AUTO 16006KT 9999 // NCD 22/16 Q1020
Loading
Personal Weather Stations






























Interactive Weather Map
Tropical Storm Tracking
New forecast layout! Learn more

10-Day Weather Forecast

Advertisements
Track Severe Weather on mobile